sensor_id;sensor_type;location;lat;lon;timestamp;P1;durP1;ratioP1;P2;durP2;ratioP2
59571;SDS011;70118;45.638;11.714;2023-09-18T00:00:48;10.85;;;7.30;;
59571;SDS011;70118;45.638;11.714;2023-09-18T00:03:15;10.80;;;7.90;;
59571;SDS011;70118;45.638;11.714;2023-09-18T00:05:44;10.52;;;7.47;;
59571;SDS011;70118;45.638;11.714;2023-09-18T00:08:10;10.15;;;7.32;;
59571;SDS011;70118;45.638;11.714;2023-09-18T00:10:36;9.80;;;7.57;;
59571;SDS011;70118;45.638;11.714;2023-09-18T00:13:02;11.85;;;8.15;;
59571;SDS011;70118;45.638;11.714;2023-09-18T00:15:28;11.43;;;7.75;;
59571;SDS011;70118;45.638;11.714;2023-09-18T00:17:54;12.47;;;8.33;;
59571;SDS011;70118;45.638;11.714;2023-09-18T00:20:21;11.13;;;8.35;;
59571;SDS011;70118;45.638;11.714;2023-09-18T00:22:52;11.15;;;7.68;;
59571;SDS011;70118;45.638;11.714;2023-09-18T00:25:19;10.63;;;8.07;;
59571;SDS011;70118;45.638;11.714;2023-09-18T00:27:45;11.23;;;7.97;;
59571;SDS011;70118;45.638;11.714;2023-09-18T00:30:11;10.13;;;7.30;;
59571;SDS011;70118;45.638;11.714;2023-09-18T00:32:37;12.65;;;7.60;;
59571;SDS011;70118;45.638;11.714;2023-09-18T00:35:03;10.93;;;7.10;;
59571;SDS011;70118;45.638;11.714;2023-09-18T00:37:29;10.43;;;7.40;;
59571;SDS011;70118;45.638;11.714;2023-09-18T00:39:54;9.52;;;6.78;;
59571;SDS011;70118;45.638;11.714;2023-09-18T00:42:20;9.10;;;6.57;;
59571;SDS011;70118;45.638;11.714;2023-09-18T00:44:48;9.27;;;7.00;;
59571;SDS011;70118;45.638;11.714;2023-09-18T00:47:14;9.55;;;6.72;;
59571;SDS011;70118;45.638;11.714;2023-09-18T00:49:43;9.05;;;6.10;;
59571;SDS011;70118;45.638;11.714;2023-09-18T00:52:12;8.85;;;6.00;;
59571;SDS011;70118;45.638;11.714;2023-09-18T00:54:39;8.70;;;5.95;;
59571;SDS011;70118;45.638;11.714;2023-09-18T00:57:06;9.10;;;6.13;;
59571;SDS011;70118;45.638;11.714;2023-09-18T00:59:33;8.23;;;5.60;;
59571;SDS011;70118;45.638;11.714;2023-09-18T01:01:59;8.43;;;5.93;;
59571;SDS011;70118;45.638;11.714;2023-09-18T01:04:25;9.40;;;6.00;;
59571;SDS011;70118;45.638;11.714;2023-09-18T01:06:53;10.47;;;6.50;;
59571;SDS011;70118;45.638;11.714;2023-09-18T01:09:21;8.43;;;5.93;;
59571;SDS011;70118;45.638;11.714;2023-09-18T01:16:50;10.13;;;7.22;;
59571;SDS011;70118;45.638;11.714;2023-09-18T01:22:07;11.73;;;7.22;;
59571;SDS011;70118;45.638;11.714;2023-09-18T01:24:35;10.70;;;7.80;;
59571;SDS011;70118;45.638;11.714;2023-09-18T01:27:02;12.37;;;7.53;;
59571;SDS011;70118;45.638;11.714;2023-09-18T01:29:30;10.60;;;7.35;;
59571;SDS011;70118;45.638;11.714;2023-09-18T01:31:56;10.60;;;7.90;;
59571;SDS011;70118;45.638;11.714;2023-09-18T01:34:25;10.20;;;7.35;;
59571;SDS011;70118;45.638;11.714;2023-09-18T01:36:53;11.80;;;7.65;;
59571;SDS011;70118;45.638;11.714;2023-09-18T01:39:22;10.77;;;7.53;;
59571;SDS011;70118;45.638;11.714;2023-09-18T01:41:49;11.75;;;7.55;;
59571;SDS011;70118;45.638;11.714;2023-09-18T01:44:15;10.90;;;7.50;;
59571;SDS011;70118;45.638;11.714;2023-09-18T01:46:41;11.38;;;7.55;;
59571;SDS011;70118;45.638;11.714;2023-09-18T01:49:09;10.07;;;7.20;;
59571;SDS011;70118;45.638;11.714;2023-09-18T01:51:35;11.60;;;7.90;;
59571;SDS011;70118;45.638;11.714;2023-09-18T01:54:01;11.13;;;8.13;;
59571;SDS011;70118;45.638;11.714;2023-09-18T01:56:27;11.77;;;7.30;;
59571;SDS011;70118;45.638;11.714;2023-09-18T01:58:53;10.53;;;6.37;;
59571;SDS011;70118;45.638;11.714;2023-09-18T02:01:18;10.15;;;6.25;;
59571;SDS011;70118;45.638;11.714;2023-09-18T02:03:44;9.98;;;6.43;;
59571;SDS011;70118;45.638;11.714;2023-09-18T02:06:10;10.40;;;6.60;;
59571;SDS011;70118;45.638;11.714;2023-09-18T02:08:36;8.90;;;6.00;;
59571;SDS011;70118;45.638;11.714;2023-09-18T02:11:02;10.75;;;6.00;;
59571;SDS011;70118;45.638;11.714;2023-09-18T02:13:29;10.13;;;6.00;;
59571;SDS011;70118;45.638;11.714;2023-09-18T02:15:56;9.17;;;5.70;;
59571;SDS011;70118;45.638;11.714;2023-09-18T02:18:22;8.02;;;5.72;;
59571;SDS011;70118;45.638;11.714;2023-09-18T02:20:47;8.10;;;5.40;;
59571;SDS011;70118;45.638;11.714;2023-09-18T02:23:17;9.80;;;5.88;;
59571;SDS011;70118;45.638;11.714;2023-09-18T02:25:43;8.80;;;5.33;;
59571;SDS011;70118;45.638;11.714;2023-09-18T02:28:09;11.20;;;5.82;;
59571;SDS011;70118;45.638;11.714;2023-09-18T02:30:35;8.38;;;5.40;;
59571;SDS011;70118;45.638;11.714;2023-09-18T02:33:01;8.57;;;5.30;;
59571;SDS011;70118;45.638;11.714;2023-09-18T02:35:30;8.27;;;5.43;;
59571;SDS011;70118;45.638;11.714;2023-09-18T02:37:56;8.95;;;5.40;;
59571;SDS011;70118;45.638;11.714;2023-09-18T02:40:24;9.50;;;6.07;;
59571;SDS011;70118;45.638;11.714;2023-09-18T02:42:54;9.05;;;5.55;;
59571;SDS011;70118;45.638;11.714;2023-09-18T02:45:20;9.37;;;6.20;;
59571;SDS011;70118;45.638;11.714;2023-09-18T02:47:47;8.48;;;5.75;;
59571;SDS011;70118;45.638;11.714;2023-09-18T02:50:17;8.68;;;5.57;;
59571;SDS011;70118;45.638;11.714;2023-09-18T02:52:44;12.07;;;5.50;;
59571;SDS011;70118;45.638;11.714;2023-09-18T02:55:11;8.18;;;5.32;;
59571;SDS011;70118;45.638;11.714;2023-09-18T02:57:38;7.55;;;5.45;;
59571;SDS011;70118;45.638;11.714;2023-09-18T03:00:05;8.70;;;5.47;;
59571;SDS011;70118;45.638;11.714;2023-09-18T03:02:31;8.77;;;5.75;;
59571;SDS011;70118;45.638;11.714;2023-09-18T03:05:01;8.73;;;5.57;;
59571;SDS011;70118;45.638;11.714;2023-09-18T03:07:28;10.07;;;5.43;;
59571;SDS011;70118;45.638;11.714;2023-09-18T03:09:54;8.15;;;5.00;;
59571;SDS011;70118;45.638;11.714;2023-09-18T03:12:21;7.50;;;5.30;;
59571;SDS011;70118;45.638;11.714;2023-09-18T03:14:48;8.82;;;5.60;;
59571;SDS011;70118;45.638;11.714;2023-09-18T03:17:14;8.17;;;5.33;;
59571;SDS011;70118;45.638;11.714;2023-09-18T03:19:40;10.13;;;5.90;;
59571;SDS011;70118;45.638;11.714;2023-09-18T03:22:06;8.77;;;5.33;;
59571;SDS011;70118;45.638;11.714;2023-09-18T03:24:32;9.93;;;5.95;;
59571;SDS011;70118;45.638;11.714;2023-09-18T03:26:57;10.52;;;6.25;;
59571;SDS011;70118;45.638;11.714;2023-09-18T03:29:23;9.27;;;6.50;;
59571;SDS011;70118;45.638;11.714;2023-09-18T03:31:49;9.43;;;6.05;;
59571;SDS011;70118;45.638;11.714;2023-09-18T03:34:15;9.90;;;6.33;;
59571;SDS011;70118;45.638;11.714;2023-09-18T03:36:40;8.68;;;5.88;;
59571;SDS011;70118;45.638;11.714;2023-09-18T03:39:06;8.07;;;5.72;;
59571;SDS011;70118;45.638;11.714;2023-09-18T03:41:32;8.30;;;5.40;;
59571;SDS011;70118;45.638;11.714;2023-09-18T03:43:59;9.35;;;6.25;;
59571;SDS011;70118;45.638;11.714;2023-09-18T03:46:25;8.77;;;5.63;;
59571;SDS011;70118;45.638;11.714;2023-09-18T03:48:52;9.18;;;5.68;;
59571;SDS011;70118;45.638;11.714;2023-09-18T03:51:18;9.50;;;5.77;;
59571;SDS011;70118;45.638;11.714;2023-09-18T03:53:46;9.10;;;6.30;;
59571;SDS011;70118;45.638;11.714;2023-09-18T03:56:13;10.00;;;5.57;;
59571;SDS011;70118;45.638;11.714;2023-09-18T03:58:39;9.13;;;6.57;;
59571;SDS011;70118;45.638;11.714;2023-09-18T04:01:05;9.53;;;5.50;;
59571;SDS011;70118;45.638;11.714;2023-09-18T04:03:30;8.73;;;6.07;;
59571;SDS011;70118;45.638;11.714;2023-09-18T04:05:56;9.20;;;6.07;;
59571;SDS011;70118;45.638;11.714;2023-09-18T04:08:22;9.43;;;6.20;;
59571;SDS011;70118;45.638;11.714;2023-09-18T04:10:48;9.40;;;5.80;;
59571;SDS011;70118;45.638;11.714;2023-09-18T04:13:14;9.00;;;5.53;;
59571;SDS011;70118;45.638;11.714;2023-09-18T04:15:39;8.52;;;5.47;;
59571;SDS011;70118;45.638;11.714;2023-09-18T04:18:05;8.82;;;5.43;;
59571;SDS011;70118;45.638;11.714;2023-09-18T04:20:31;8.37;;;5.13;;
59571;SDS011;70118;45.638;11.714;2023-09-18T04:25:42;8.40;;;5.78;;
59571;SDS011;70118;45.638;11.714;2023-09-18T04:28:08;8.93;;;5.57;;
59571;SDS011;70118;45.638;11.714;2023-09-18T04:30:34;8.73;;;5.70;;
59571;SDS011;70118;45.638;11.714;2023-09-18T04:33:01;10.38;;;6.43;;
59571;SDS011;70118;45.638;11.714;2023-09-18T04:35:27;9.00;;;6.07;;
59571;SDS011;70118;45.638;11.714;2023-09-18T04:37:55;10.20;;;6.27;;
59571;SDS011;70118;45.638;11.714;2023-09-18T04:40:21;8.68;;;6.05;;
59571;SDS011;70118;45.638;11.714;2023-09-18T04:42:49;9.38;;;6.03;;
59571;SDS011;70118;45.638;11.714;2023-09-18T04:45:14;6.88;;;4.53;;
59571;SDS011;70118;45.638;11.714;2023-09-18T04:47:41;8.52;;;4.72;;
59571;SDS011;70118;45.638;11.714;2023-09-18T04:50:07;9.13;;;5.27;;
59571;SDS011;70118;45.638;11.714;2023-09-18T04:52:33;7.90;;;5.22;;
59571;SDS011;70118;45.638;11.714;2023-09-18T04:54:59;6.60;;;4.35;;
59571;SDS011;70118;45.638;11.714;2023-09-18T04:57:25;9.10;;;5.38;;
59571;SDS011;70118;45.638;11.714;2023-09-18T04:59:51;7.67;;;5.33;;
59571;SDS011;70118;45.638;11.714;2023-09-18T05:02:17;7.50;;;4.40;;
59571;SDS011;70118;45.638;11.714;2023-09-18T05:04:42;6.47;;;3.87;;
59571;SDS011;70118;45.638;11.714;2023-09-18T05:07:08;5.95;;;3.55;;
59571;SDS011;70118;45.638;11.714;2023-09-18T05:09:34;6.47;;;4.25;;
59571;SDS011;70118;45.638;11.714;2023-09-18T05:12:00;7.13;;;4.50;;
59571;SDS011;70118;45.638;11.714;2023-09-18T05:14:28;7.18;;;4.70;;
59571;SDS011;70118;45.638;11.714;2023-09-18T05:16:54;5.82;;;3.95;;
59571;SDS011;70118;45.638;11.714;2023-09-18T05:19:20;5.80;;;3.60;;
59571;SDS011;70118;45.638;11.714;2023-09-18T05:21:46;5.75;;;3.63;;
59571;SDS011;70118;45.638;11.714;2023-09-18T05:24:13;6.32;;;3.75;;
59571;SDS011;70118;45.638;11.714;2023-09-18T05:26:39;6.30;;;3.92;;
59571;SDS011;70118;45.638;11.714;2023-09-18T05:29:04;8.10;;;5.30;;
59571;SDS011;70118;45.638;11.714;2023-09-18T05:31:30;8.20;;;5.50;;
59571;SDS011;70118;45.638;11.714;2023-09-18T05:33:56;8.17;;;5.47;;
59571;SDS011;70118;45.638;11.714;2023-09-18T05:36:23;8.93;;;5.82;;
59571;SDS011;70118;45.638;11.714;2023-09-18T05:38:49;9.23;;;5.63;;
59571;SDS011;70118;45.638;11.714;2023-09-18T05:41:14;8.93;;;5.10;;
59571;SDS011;70118;45.638;11.714;2023-09-18T05:43:40;6.75;;;4.20;;
59571;SDS011;70118;45.638;11.714;2023-09-18T05:46:07;8.20;;;5.25;;
59571;SDS011;70118;45.638;11.714;2023-09-18T05:48:32;6.47;;;3.77;;
59571;SDS011;70118;45.638;11.714;2023-09-18T05:50:58;6.85;;;4.15;;
59571;SDS011;70118;45.638;11.714;2023-09-18T05:53:25;5.80;;;4.00;;
59571;SDS011;70118;45.638;11.714;2023-09-18T05:55:50;6.75;;;3.70;;
59571;SDS011;70118;45.638;11.714;2023-09-18T05:58:16;6.87;;;4.13;;
59571;SDS011;70118;45.638;11.714;2023-09-18T06:00:44;5.85;;;4.25;;
59571;SDS011;70118;45.638;11.714;2023-09-18T06:03:11;7.53;;;4.43;;
59571;SDS011;70118;45.638;11.714;2023-09-18T06:05:37;7.90;;;5.25;;
59571;SDS011;70118;45.638;11.714;2023-09-18T06:08:03;7.23;;;5.20;;
59571;SDS011;70118;45.638;11.714;2023-09-18T06:10:31;7.13;;;4.57;;
59571;SDS011;70118;45.638;11.714;2023-09-18T06:13:05;9.82;;;5.90;;
59571;SDS011;70118;45.638;11.714;2023-09-18T06:15:31;8.47;;;5.77;;
59571;SDS011;70118;45.638;11.714;2023-09-18T06:17:57;10.60;;;6.67;;
59571;SDS011;70118;45.638;11.714;2023-09-18T06:20:23;10.70;;;6.28;;
59571;SDS011;70118;45.638;11.714;2023-09-18T06:22:49;8.10;;;6.65;;
59571;SDS011;70118;45.638;11.714;2023-09-18T06:25:14;8.40;;;6.23;;
59571;SDS011;70118;45.638;11.714;2023-09-18T06:27:41;8.73;;;5.70;;
59571;SDS011;70118;45.638;11.714;2023-09-18T06:30:07;7.97;;;5.65;;
59571;SDS011;70118;45.638;11.714;2023-09-18T06:32:34;7.93;;;4.97;;
59571;SDS011;70118;45.638;11.714;2023-09-18T06:35:02;7.72;;;5.07;;
59571;SDS011;70118;45.638;11.714;2023-09-18T06:37:28;7.75;;;4.97;;
59571;SDS011;70118;45.638;11.714;2023-09-18T06:39:53;7.25;;;4.55;;
59571;SDS011;70118;45.638;11.714;2023-09-18T06:42:20;8.50;;;5.68;;
59571;SDS011;70118;45.638;11.714;2023-09-18T06:44:45;8.77;;;5.50;;
59571;SDS011;70118;45.638;11.714;2023-09-18T06:47:11;9.10;;;6.53;;
59571;SDS011;70118;45.638;11.714;2023-09-18T06:49:37;9.25;;;6.78;;
59571;SDS011;70118;45.638;11.714;2023-09-18T06:52:03;11.53;;;6.90;;
59571;SDS011;70118;45.638;11.714;2023-09-18T06:54:30;14.23;;;7.60;;
59571;SDS011;70118;45.638;11.714;2023-09-18T06:56:55;12.10;;;7.53;;
59571;SDS011;70118;45.638;11.714;2023-09-18T06:59:21;10.10;;;7.70;;
59571;SDS011;70118;45.638;11.714;2023-09-18T07:01:47;11.98;;;8.45;;
59571;SDS011;70118;45.638;11.714;2023-09-18T07:04:13;11.50;;;8.50;;
59571;SDS011;70118;45.638;11.714;2023-09-18T07:06:39;11.17;;;7.73;;
59571;SDS011;70118;45.638;11.714;2023-09-18T07:09:05;11.38;;;7.70;;
59571;SDS011;70118;45.638;11.714;2023-09-18T07:11:32;12.30;;;8.32;;
59571;SDS011;70118;45.638;11.714;2023-09-18T07:13:59;10.80;;;8.32;;
59571;SDS011;70118;45.638;11.714;2023-09-18T07:16:25;10.80;;;7.80;;
59571;SDS011;70118;45.638;11.714;2023-09-18T07:18:50;10.32;;;7.30;;
59571;SDS011;70118;45.638;11.714;2023-09-18T07:21:17;11.18;;;7.65;;
59571;SDS011;70118;45.638;11.714;2023-09-18T07:23:43;12.07;;;7.43;;
59571;SDS011;70118;45.638;11.714;2023-09-18T07:26:11;12.40;;;8.20;;
59571;SDS011;70118;45.638;11.714;2023-09-18T07:28:36;10.38;;;7.50;;
59571;SDS011;70118;45.638;11.714;2023-09-18T07:31:06;8.80;;;6.20;;
59571;SDS011;70118;45.638;11.714;2023-09-18T07:33:34;11.53;;;7.80;;
59571;SDS011;70118;45.638;11.714;2023-09-18T07:35:59;11.57;;;7.28;;
59571;SDS011;70118;45.638;11.714;2023-09-18T07:38:25;11.43;;;7.53;;
59571;SDS011;70118;45.638;11.714;2023-09-18T07:40:52;11.07;;;7.53;;
59571;SDS011;70118;45.638;11.714;2023-09-18T07:43:17;10.60;;;7.40;;
59571;SDS011;70118;45.638;11.714;2023-09-18T07:45:43;10.35;;;7.47;;
59571;SDS011;70118;45.638;11.714;2023-09-18T07:48:09;9.98;;;7.05;;
59571;SDS011;70118;45.638;11.714;2023-09-18T07:50:35;11.43;;;8.40;;
59571;SDS011;70118;45.638;11.714;2023-09-18T07:53:01;12.70;;;8.25;;
59571;SDS011;70118;45.638;11.714;2023-09-18T07:55:28;10.55;;;7.35;;
59571;SDS011;70118;45.638;11.714;2023-09-18T07:57:55;12.17;;;6.90;;
59571;SDS011;70118;45.638;11.714;2023-09-18T08:00:21;11.13;;;8.00;;
59571;SDS011;70118;45.638;11.714;2023-09-18T08:02:48;12.93;;;8.38;;
59571;SDS011;70118;45.638;11.714;2023-09-18T08:05:15;12.13;;;8.32;;
59571;SDS011;70118;45.638;11.714;2023-09-18T08:07:42;11.23;;;7.78;;
59571;SDS011;70118;45.638;11.714;2023-09-18T08:10:09;10.73;;;8.13;;
59571;SDS011;70118;45.638;11.714;2023-09-18T08:12:37;12.05;;;7.68;;
59571;SDS011;70118;45.638;11.714;2023-09-18T08:15:04;10.43;;;7.20;;
59571;SDS011;70118;45.638;11.714;2023-09-18T08:17:31;10.13;;;7.70;;
59571;SDS011;70118;45.638;11.714;2023-09-18T08:19:57;9.10;;;6.55;;
59571;SDS011;70118;45.638;11.714;2023-09-18T08:22:23;9.97;;;6.47;;
59571;SDS011;70118;45.638;11.714;2023-09-18T08:24:49;10.18;;;6.43;;
59571;SDS011;70118;45.638;11.714;2023-09-18T08:27:18;9.27;;;6.72;;
59571;SDS011;70118;45.638;11.714;2023-09-18T08:29:45;10.45;;;7.40;;
59571;SDS011;70118;45.638;11.714;2023-09-18T08:32:11;11.38;;;8.25;;
59571;SDS011;70118;45.638;11.714;2023-09-18T08:34:37;12.00;;;8.00;;
59571;SDS011;70118;45.638;11.714;2023-09-18T08:37:04;12.10;;;7.88;;
59571;SDS011;70118;45.638;11.714;2023-09-18T08:39:30;11.90;;;8.55;;
59571;SDS011;70118;45.638;11.714;2023-09-18T08:42:02;12.20;;;8.48;;
59571;SDS011;70118;45.638;11.714;2023-09-18T08:44:29;13.43;;;9.33;;
59571;SDS011;70118;45.638;11.714;2023-09-18T08:46:57;14.07;;;8.90;;
59571;SDS011;70118;45.638;11.714;2023-09-18T08:49:25;13.50;;;8.95;;
59571;SDS011;70118;45.638;11.714;2023-09-18T08:51:54;13.45;;;8.55;;
59571;SDS011;70118;45.638;11.714;2023-09-18T08:54:23;11.90;;;7.75;;
59571;SDS011;70118;45.638;11.714;2023-09-18T08:56:50;11.33;;;8.10;;
59571;SDS011;70118;45.638;11.714;2023-09-18T08:59:17;10.23;;;7.53;;
59571;SDS011;70118;45.638;11.714;2023-09-18T09:01:44;10.55;;;7.15;;
59571;SDS011;70118;45.638;11.714;2023-09-18T09:04:10;10.55;;;7.53;;
59571;SDS011;70118;45.638;11.714;2023-09-18T09:06:37;13.05;;;8.65;;
59571;SDS011;70118;45.638;11.714;2023-09-18T09:09:03;13.03;;;8.43;;
59571;SDS011;70118;45.638;11.714;2023-09-18T09:11:30;11.93;;;8.40;;
59571;SDS011;70118;45.638;11.714;2023-09-18T09:14:10;11.75;;;8.95;;
59571;SDS011;70118;45.638;11.714;2023-09-18T09:16:41;12.15;;;8.65;;
59571;SDS011;70118;45.638;11.714;2023-09-18T09:19:12;13.70;;;8.75;;
59571;SDS011;70118;45.638;11.714;2023-09-18T09:21:39;12.87;;;8.67;;
59571;SDS011;70118;45.638;11.714;2023-09-18T09:24:06;11.75;;;8.05;;
59571;SDS011;70118;45.638;11.714;2023-09-18T09:26:32;13.27;;;8.15;;
59571;SDS011;70118;45.638;11.714;2023-09-18T09:29:14;10.80;;;7.20;;
59571;SDS011;70118;45.638;11.714;2023-09-18T09:31:44;11.48;;;7.80;;
59571;SDS011;70118;45.638;11.714;2023-09-18T09:34:23;9.77;;;6.50;;
59571;SDS011;70118;45.638;11.714;2023-09-18T09:36:55;10.75;;;6.80;;
59571;SDS011;70118;45.638;11.714;2023-09-18T09:39:22;12.52;;;7.53;;
59571;SDS011;70118;45.638;11.714;2023-09-18T09:41:53;11.57;;;7.68;;
59571;SDS011;70118;45.638;11.714;2023-09-18T09:44:19;10.45;;;7.13;;
59571;SDS011;70118;45.638;11.714;2023-09-18T09:46:49;9.73;;;6.53;;
59571;SDS011;70118;45.638;11.714;2023-09-18T09:49:16;10.82;;;7.60;;
59571;SDS011;70118;45.638;11.714;2023-09-18T09:51:45;9.23;;;6.50;;
59571;SDS011;70118;45.638;11.714;2023-09-18T09:54:11;11.23;;;7.63;;
59571;SDS011;70118;45.638;11.714;2023-09-18T09:59:08;9.57;;;6.77;;
59571;SDS011;70118;45.638;11.714;2023-09-18T10:01:37;10.68;;;7.50;;
59571;SDS011;70118;45.638;11.714;2023-09-18T10:04:04;9.95;;;6.80;;
59571;SDS011;70118;45.638;11.714;2023-09-18T10:06:34;10.38;;;6.45;;
59571;SDS011;70118;45.638;11.714;2023-09-18T10:09:03;11.55;;;7.90;;
59571;SDS011;70118;45.638;11.714;2023-09-18T10:11:33;8.87;;;6.60;;
59571;SDS011;70118;45.638;11.714;2023-09-18T10:14:04;8.27;;;6.35;;
59571;SDS011;70118;45.638;11.714;2023-09-18T10:16:47;9.60;;;6.78;;
59571;SDS011;70118;45.638;11.714;2023-09-18T10:25:11;11.53;;;6.87;;
59571;SDS011;70118;45.638;11.714;2023-09-18T10:27:48;9.15;;;6.50;;
59571;SDS011;70118;45.638;11.714;2023-09-18T10:30:18;9.63;;;6.38;;
59571;SDS011;70118;45.638;11.714;2023-09-18T10:32:48;9.45;;;6.40;;
59571;SDS011;70118;45.638;11.714;2023-09-18T10:35:16;10.63;;;7.07;;
59571;SDS011;70118;45.638;11.714;2023-09-18T10:37:45;9.53;;;7.30;;
59571;SDS011;70118;45.638;11.714;2023-09-18T10:40:13;8.95;;;6.60;;
59571;SDS011;70118;45.638;11.714;2023-09-18T10:42:39;8.55;;;6.18;;
59571;SDS011;70118;45.638;11.714;2023-09-18T10:45:08;11.02;;;7.57;;
59571;SDS011;70118;45.638;11.714;2023-09-18T10:47:39;10.77;;;7.55;;
59571;SDS011;70118;45.638;11.714;2023-09-18T10:50:06;10.90;;;6.93;;
59571;SDS011;70118;45.638;11.714;2023-09-18T10:52:35;10.20;;;7.60;;
59571;SDS011;70118;45.638;11.714;2023-09-18T10:55:10;10.65;;;7.60;;
59571;SDS011;70118;45.638;11.714;2023-09-18T10:57:49;11.05;;;7.90;;
59571;SDS011;70118;45.638;11.714;2023-09-18T11:00:19;11.18;;;7.43;;
59571;SDS011;70118;45.638;11.714;2023-09-18T11:03:10;9.93;;;6.37;;
59571;SDS011;70118;45.638;11.714;2023-09-18T11:05:37;9.25;;;6.35;;
59571;SDS011;70118;45.638;11.714;2023-09-18T11:11:01;9.00;;;6.47;;
59571;SDS011;70118;45.638;11.714;2023-09-18T11:13:45;9.67;;;6.70;;
59571;SDS011;70118;45.638;11.714;2023-09-18T11:21:25;11.82;;;6.75;;
59571;SDS011;70118;45.638;11.714;2023-09-18T11:24:01;9.98;;;7.03;;
59571;SDS011;70118;45.638;11.714;2023-09-18T11:26:29;9.70;;;6.43;;
59571;SDS011;70118;45.638;11.714;2023-09-18T11:29:00;10.50;;;6.88;;
59571;SDS011;70118;45.638;11.714;2023-09-18T11:36:49;10.98;;;7.22;;
59571;SDS011;70118;45.638;11.714;2023-09-18T11:39:34;10.97;;;7.20;;
59571;SDS011;70118;45.638;11.714;2023-09-18T11:44:34;10.10;;;7.13;;
59571;SDS011;70118;45.638;11.714;2023-09-18T11:47:01;9.88;;;7.07;;
59571;SDS011;70118;45.638;11.714;2023-09-18T11:49:29;12.20;;;7.28;;
59571;SDS011;70118;45.638;11.714;2023-09-18T11:52:00;10.10;;;7.70;;
59571;SDS011;70118;45.638;11.714;2023-09-18T11:54:29;11.98;;;8.07;;
59571;SDS011;70118;45.638;11.714;2023-09-18T11:57:02;9.90;;;7.13;;
59571;SDS011;70118;45.638;11.714;2023-09-18T11:59:48;10.32;;;8.02;;
59571;SDS011;70118;45.638;11.714;2023-09-18T12:04:53;10.40;;;6.97;;
59571;SDS011;70118;45.638;11.714;2023-09-18T12:07:21;17.13;;;7.55;;
59571;SDS011;70118;45.638;11.714;2023-09-18T12:09:49;10.23;;;7.82;;
59571;SDS011;70118;45.638;11.714;2023-09-18T12:12:16;9.82;;;6.45;;
59571;SDS011;70118;45.638;11.714;2023-09-18T12:14:42;9.20;;;6.60;;
59571;SDS011;70118;45.638;11.714;2023-09-18T12:17:13;8.98;;;6.00;;
59571;SDS011;70118;45.638;11.714;2023-09-18T12:19:53;8.40;;;6.13;;
59571;SDS011;70118;45.638;11.714;2023-09-18T12:22:25;10.70;;;6.95;;
59571;SDS011;70118;45.638;11.714;2023-09-18T12:25:15;10.45;;;7.07;;
59571;SDS011;70118;45.638;11.714;2023-09-18T12:27:51;7.93;;;6.00;;
59571;SDS011;70118;45.638;11.714;2023-09-18T12:30:26;10.60;;;6.95;;
59571;SDS011;70118;45.638;11.714;2023-09-18T12:32:52;10.00;;;6.95;;
59571;SDS011;70118;45.638;11.714;2023-09-18T12:35:26;10.38;;;7.15;;
59571;SDS011;70118;45.638;11.714;2023-09-18T12:38:00;9.90;;;6.75;;
59571;SDS011;70118;45.638;11.714;2023-09-18T12:40:30;9.47;;;6.93;;
59571;SDS011;70118;45.638;11.714;2023-09-18T12:42:59;9.93;;;7.55;;
59571;SDS011;70118;45.638;11.714;2023-09-18T12:45:26;9.25;;;6.85;;
59571;SDS011;70118;45.638;11.714;2023-09-18T12:47:55;10.43;;;6.93;;
59571;SDS011;70118;45.638;11.714;2023-09-18T12:50:25;9.50;;;7.00;;
59571;SDS011;70118;45.638;11.714;2023-09-18T12:53:11;9.87;;;7.10;;
59571;SDS011;70118;45.638;11.714;2023-09-18T12:55:38;11.10;;;7.47;;
59571;SDS011;70118;45.638;11.714;2023-09-18T12:58:05;9.75;;;7.07;;
59571;SDS011;70118;45.638;11.714;2023-09-18T13:00:33;10.23;;;7.28;;
59571;SDS011;70118;45.638;11.714;2023-09-18T13:03:00;10.38;;;7.38;;
59571;SDS011;70118;45.638;11.714;2023-09-18T13:05:32;9.23;;;7.33;;
59571;SDS011;70118;45.638;11.714;2023-09-18T13:08:08;11.82;;;7.45;;
59571;SDS011;70118;45.638;11.714;2023-09-18T13:10:55;12.40;;;7.93;;
59571;SDS011;70118;45.638;11.714;2023-09-18T13:13:23;10.02;;;7.53;;
59571;SDS011;70118;45.638;11.714;2023-09-18T13:15:51;9.80;;;7.38;;
59571;SDS011;70118;45.638;11.714;2023-09-18T13:18:24;11.53;;;7.37;;
59571;SDS011;70118;45.638;11.714;2023-09-18T13:20:51;8.98;;;6.97;;
59571;SDS011;70118;45.638;11.714;2023-09-18T13:23:17;10.00;;;7.18;;
59571;SDS011;70118;45.638;11.714;2023-09-18T13:25:43;10.88;;;7.05;;
59571;SDS011;70118;45.638;11.714;2023-09-18T13:28:11;10.60;;;7.33;;
59571;SDS011;70118;45.638;11.714;2023-09-18T13:30:39;10.48;;;6.88;;
59571;SDS011;70118;45.638;11.714;2023-09-18T13:33:08;9.93;;;6.93;;
59571;SDS011;70118;45.638;11.714;2023-09-18T13:35:38;9.45;;;7.38;;
59571;SDS011;70118;45.638;11.714;2023-09-18T13:38:06;10.40;;;7.72;;
59571;SDS011;70118;45.638;11.714;2023-09-18T13:40:36;9.70;;;6.93;;
59571;SDS011;70118;45.638;11.714;2023-09-18T13:43:03;9.75;;;6.90;;
59571;SDS011;70118;45.638;11.714;2023-09-18T13:45:30;9.07;;;7.40;;
59571;SDS011;70118;45.638;11.714;2023-09-18T13:48:00;9.90;;;7.03;;
59571;SDS011;70118;45.638;11.714;2023-09-18T13:50:30;11.27;;;7.47;;
59571;SDS011;70118;45.638;11.714;2023-09-18T13:52:57;9.13;;;6.97;;
59571;SDS011;70118;45.638;11.714;2023-09-18T13:55:24;11.00;;;7.35;;
59571;SDS011;70118;45.638;11.714;2023-09-18T13:57:50;9.90;;;7.28;;
59571;SDS011;70118;45.638;11.714;2023-09-18T14:00:16;11.98;;;6.97;;
59571;SDS011;70118;45.638;11.714;2023-09-18T14:02:42;9.53;;;7.47;;
59571;SDS011;70118;45.638;11.714;2023-09-18T14:05:09;10.30;;;7.65;;
59571;SDS011;70118;45.638;11.714;2023-09-18T14:07:36;11.75;;;7.60;;
59571;SDS011;70118;45.638;11.714;2023-09-18T14:10:08;10.68;;;8.35;;
59571;SDS011;70118;45.638;11.714;2023-09-18T14:12:36;10.85;;;7.70;;
59571;SDS011;70118;45.638;11.714;2023-09-18T14:15:08;12.67;;;7.93;;
59571;SDS011;70118;45.638;11.714;2023-09-18T14:17:35;13.10;;;8.70;;
59571;SDS011;70118;45.638;11.714;2023-09-18T14:20:01;10.32;;;8.05;;
59571;SDS011;70118;45.638;11.714;2023-09-18T14:22:36;10.88;;;8.02;;
59571;SDS011;70118;45.638;11.714;2023-09-18T14:25:02;11.43;;;7.93;;
59571;SDS011;70118;45.638;11.714;2023-09-18T14:27:32;11.53;;;7.53;;
59571;SDS011;70118;45.638;11.714;2023-09-18T14:29:58;11.68;;;7.70;;
59571;SDS011;70118;45.638;11.714;2023-09-18T14:32:24;10.93;;;7.53;;
59571;SDS011;70118;45.638;11.714;2023-09-18T14:34:50;13.05;;;8.73;;
59571;SDS011;70118;45.638;11.714;2023-09-18T14:37:16;12.20;;;8.67;;
59571;SDS011;70118;45.638;11.714;2023-09-18T14:39:42;12.00;;;8.60;;
59571;SDS011;70118;45.638;11.714;2023-09-18T14:42:08;11.73;;;7.43;;
59571;SDS011;70118;45.638;11.714;2023-09-18T14:44:35;9.23;;;7.47;;
59571;SDS011;70118;45.638;11.714;2023-09-18T14:47:05;10.03;;;7.47;;
59571;SDS011;70118;45.638;11.714;2023-09-18T14:49:31;11.18;;;8.40;;
59571;SDS011;70118;45.638;11.714;2023-09-18T14:51:57;13.70;;;8.30;;
59571;SDS011;70118;45.638;11.714;2023-09-18T14:54:23;10.50;;;7.18;;
59571;SDS011;70118;45.638;11.714;2023-09-18T14:56:49;13.50;;;8.20;;
59571;SDS011;70118;45.638;11.714;2023-09-18T14:59:15;12.85;;;7.35;;
59571;SDS011;70118;45.638;11.714;2023-09-18T15:01:41;12.27;;;7.57;;
59571;SDS011;70118;45.638;11.714;2023-09-18T15:04:08;10.47;;;7.63;;
59571;SDS011;70118;45.638;11.714;2023-09-18T15:06:34;11.73;;;7.22;;
59571;SDS011;70118;45.638;11.714;2023-09-18T15:09:00;10.48;;;7.22;;